createdAt,value
2018-09-02T00:02:36.778Z,3.40
2018-09-02T00:07:58.955Z,3.50
2018-09-02T00:13:20.708Z,3.70
2018-09-02T00:18:42.843Z,3.40
2018-09-02T00:24:04.897Z,3.40
2018-09-02T00:29:27.018Z,3.30
2018-09-02T00:34:49.079Z,3.20
2018-09-02T00:40:11.085Z,3.20
2018-09-02T00:45:32.975Z,3.60
2018-09-02T00:50:54.948Z,3.50
2018-09-02T00:56:16.985Z,3.50
2018-09-02T01:01:38.976Z,3.73
2018-09-02T01:07:00.959Z,3.13
2018-09-02T01:12:23.111Z,3.33
2018-09-02T01:17:45.252Z,3.17
2018-09-02T01:23:07.542Z,2.63
2018-09-02T01:28:29.675Z,2.97
2018-09-02T01:33:51.976Z,3.23
2018-09-02T01:39:13.926Z,3.63
2018-09-02T01:44:36.318Z,3.50
2018-09-02T01:49:58.491Z,3.77
2018-09-02T01:55:20.353Z,3.53
2018-09-02T02:00:42.470Z,3.93
2018-09-02T02:06:04.986Z,3.80
2018-09-02T02:11:26.850Z,3.83
2018-09-02T02:16:49.146Z,4.07
2018-09-02T02:22:11.034Z,4.00
2018-09-02T02:27:33.219Z,3.70
2018-09-02T02:32:55.010Z,3.70
2018-09-02T02:38:17.129Z,3.43
2018-09-02T02:43:39.196Z,3.80
2018-09-02T02:49:01.089Z,3.80
2018-09-02T02:54:23.402Z,4.10
2018-09-02T02:59:45.213Z,3.47
2018-09-02T03:05:07.423Z,3.57
2018-09-02T03:10:29.319Z,3.30
2018-09-02T03:15:51.700Z,4.53
2018-09-02T03:21:13.362Z,3.57
2018-09-02T03:26:35.700Z,3.87
2018-09-02T03:31:57.421Z,4.07
2018-09-02T03:37:19.615Z,4.17
2018-09-02T03:42:41.547Z,3.70
2018-09-02T03:48:03.579Z,3.70
2018-09-02T03:53:25.407Z,4.07
2018-09-02T03:58:47.541Z,4.13
2018-09-02T04:04:09.369Z,4.13
2018-09-02T04:09:31.301Z,3.53
2018-09-02T04:14:53.059Z,3.53
2018-09-02T04:20:15.494Z,4.27
2018-09-02T04:25:37.744Z,4.73
2018-09-02T04:30:59.619Z,3.90
2018-09-02T04:36:21.710Z,4.10
2018-09-02T04:41:43.494Z,3.97
2018-09-02T04:47:05.599Z,3.33
2018-09-02T04:52:27.854Z,3.90
2018-09-02T04:57:49.766Z,4.20
2018-09-02T05:03:11.474Z,4.17
2018-09-02T05:08:33.565Z,4.50
2018-09-02T05:13:55.383Z,4.53
2018-09-02T05:19:17.472Z,4.30
2018-09-02T05:24:39.562Z,4.60
2018-09-02T05:30:01.390Z,4.07
2018-09-02T05:35:23.746Z,4.40
2018-09-02T05:40:45.509Z,4.80
2018-09-02T05:46:07.806Z,5.17
2018-09-02T05:51:29.591Z,4.77
2018-09-02T05:56:51.890Z,5.10
2018-09-02T06:02:13.819Z,6.50
2018-09-02T06:07:35.819Z,6.80
2018-09-02T06:12:57.665Z,5.23
2018-09-02T06:18:19.677Z,4.63
2018-09-02T06:23:41.461Z,4.27
2018-09-02T06:29:03.490Z,4.03
2018-09-02T06:34:25.370Z,3.77
2018-09-02T06:39:47.385Z,4.10
2018-09-02T06:45:09.246Z,3.63
2018-09-02T06:50:31.329Z,4.20
2018-09-02T06:55:53.679Z,4.20
2018-09-02T07:01:15.849Z,3.80
2018-09-02T07:06:38.120Z,3.90
2018-09-02T07:11:59.845Z,3.90
2018-09-02T07:17:21.777Z,4.00
2018-09-02T07:22:43.579Z,3.27
2018-09-02T07:28:05.674Z,3.37
2018-09-02T07:33:27.756Z,3.43
2018-09-02T07:38:49.803Z,3.63
2018-09-02T07:44:12.062Z,3.70
2018-09-02T07:49:33.902Z,3.10
2018-09-02T07:54:57.353Z,3.70
2018-09-02T08:00:19.255Z,2.83
2018-09-02T08:05:41.931Z,3.03
2018-09-02T08:11:03.683Z,3.10
2018-09-02T08:16:25.744Z,2.47
2018-09-02T08:21:47.718Z,2.73
2018-09-02T08:27:09.801Z,2.53
2018-09-02T08:32:31.680Z,2.67
2018-09-02T08:37:53.878Z,2.23
2018-09-02T08:43:15.537Z,2.07
2018-09-02T08:48:37.598Z,2.33
2018-09-02T08:53:59.534Z,2.10
2018-09-02T08:59:21.752Z,1.80
2018-09-02T09:04:44.838Z,2.00
2018-09-02T09:10:06.806Z,1.60
2018-09-02T09:15:28.726Z,1.70
2018-09-02T09:20:50.342Z,1.87
2018-09-02T09:26:14.421Z,1.87
2018-09-02T09:31:36.540Z,1.83
2018-09-02T09:36:58.785Z,1.50
2018-09-02T09:42:20.873Z,1.67
2018-09-02T09:47:43.217Z,1.37
2018-09-02T09:53:04.986Z,1.53
2018-09-02T09:58:27.892Z,1.87
2018-09-02T10:03:51.947Z,1.80
2018-09-02T10:09:15.726Z,1.33
2018-09-02T10:14:37.739Z,1.60
2018-09-02T10:20:00.012Z,1.37
2018-09-02T10:25:21.875Z,1.30
2018-09-02T10:30:43.897Z,1.50
2018-09-02T10:36:05.927Z,1.47
2018-09-02T10:41:28.082Z,1.50
2018-09-02T10:46:50.319Z,1.80
2018-09-02T10:52:13.524Z,1.90
2018-09-02T10:57:35.635Z,2.10
2018-09-02T11:02:58.272Z,1.83
2018-09-02T11:08:20.270Z,1.60
2018-09-02T11:13:42.439Z,1.80
2018-09-02T11:19:05.380Z,2.10
2018-09-02T11:24:28.647Z,2.23
2018-09-02T11:29:52.526Z,2.60
2018-09-02T11:35:14.684Z,2.13
2018-09-02T11:40:36.373Z,2.20
2018-09-02T11:45:58.454Z,1.90
2018-09-02T11:51:22.394Z,1.77
2018-09-02T11:56:45.444Z,2.17
2018-09-02T12:02:07.365Z,2.20
2018-09-02T12:07:29.534Z,1.90
2018-09-02T12:12:51.290Z,1.97
2018-09-02T12:18:13.584Z,1.90
2018-09-02T12:23:35.285Z,2.33
2018-09-02T12:28:57.461Z,2.10
2018-09-02T12:34:19.272Z,1.90
2018-09-02T12:39:41.505Z,2.23
2018-09-02T12:45:04.013Z,2.30
2018-09-02T12:50:25.931Z,1.80
2018-09-02T12:55:48.197Z,2.17
2018-09-02T13:01:10.030Z,1.90
2018-09-02T13:06:32.041Z,1.97
2018-09-02T13:11:53.809Z,2.00
2018-09-02T13:17:16.580Z,2.03
2018-09-02T13:22:38.674Z,1.93
2018-09-02T13:28:00.761Z,1.77
2018-09-02T13:33:22.902Z,2.00
2018-09-02T13:38:45.024Z,1.90
2018-09-02T13:44:07.429Z,1.90
2018-09-02T13:49:29.277Z,2.90
2018-09-02T13:54:51.119Z,2.40
2018-09-02T14:00:13.323Z,2.10
2018-09-02T14:05:35.481Z,2.03
2018-09-02T14:10:57.394Z,1.83
2018-09-02T14:16:19.191Z,1.70
2018-09-02T14:21:41.296Z,1.50
2018-09-02T14:27:03.077Z,1.87
2018-09-02T14:32:25.098Z,1.97
2018-09-02T14:37:46.793Z,2.00
2018-09-02T14:43:08.856Z,1.77
2018-09-02T14:48:30.645Z,2.37
2018-09-02T14:53:52.739Z,2.30
2018-09-02T14:59:14.642Z,2.90
2018-09-02T15:04:36.797Z,1.80
2018-09-02T15:09:59.074Z,1.60
2018-09-02T15:15:20.977Z,2.10
2018-09-02T15:20:42.761Z,2.10
2018-09-02T15:26:04.838Z,2.23
2018-09-02T15:31:27.235Z,2.00
2018-09-02T15:36:49.844Z,2.27
2018-09-02T15:42:11.743Z,1.83
2018-09-02T15:47:33.931Z,2.20
2018-09-02T15:52:55.732Z,2.40
2018-09-02T15:58:19.541Z,1.70
2018-09-02T16:03:42.997Z,1.93
2018-09-02T16:09:08.015Z,1.70
2018-09-02T16:14:30.235Z,1.87
2018-09-02T16:19:52.092Z,1.33
2018-09-02T16:25:14.187Z,1.50
2018-09-02T16:30:36.065Z,1.77
2018-09-02T16:35:58.741Z,2.00
2018-09-02T16:41:20.915Z,1.60
2018-09-02T16:46:42.986Z,2.33
2018-09-02T16:52:04.846Z,1.70
2018-09-02T16:57:26.811Z,2.20
2018-09-02T17:02:49.120Z,1.97
2018-09-02T17:08:11.191Z,1.70
2018-09-02T17:13:33.731Z,1.87
2018-09-02T17:19:00.297Z,1.57
2018-09-02T17:24:22.482Z,2.20
2018-09-02T17:29:44.493Z,1.73
2018-09-02T17:35:06.786Z,1.80
2018-09-02T17:40:28.757Z,2.60
2018-09-02T17:45:51.859Z,2.27
2018-09-02T17:51:13.829Z,2.43
2018-09-02T17:56:36.231Z,2.40
2018-09-02T18:01:58.231Z,2.63
2018-09-02T18:07:20.379Z,2.27
2018-09-02T18:12:42.353Z,2.47
2018-09-02T18:18:04.759Z,2.23
2018-09-02T18:23:26.911Z,3.10
2018-09-02T18:28:49.532Z,2.83
2018-09-02T18:34:11.603Z,2.80
2018-09-02T18:39:33.742Z,2.83
2018-09-02T18:44:56.879Z,2.30
2018-09-02T18:50:20.824Z,2.60
2018-09-02T18:55:43.154Z,2.53
2018-09-02T19:01:05.096Z,2.43
2018-09-02T19:06:27.873Z,2.70
2018-09-02T19:11:50.046Z,2.30
2018-09-02T19:17:11.917Z,2.70
2018-09-02T19:22:34.267Z,2.30
2018-09-02T19:27:56.010Z,2.30
2018-09-02T19:33:18.234Z,2.40
2018-09-02T19:38:40.333Z,1.87
2018-09-02T19:44:02.298Z,1.83
2018-09-02T19:49:24.342Z,1.80
2018-09-02T19:54:46.547Z,2.20
2018-09-02T20:00:09.452Z,2.27
2018-09-02T20:05:31.595Z,2.87
2018-09-02T20:10:53.367Z,2.20
2018-09-02T20:16:15.574Z,2.20
2018-09-02T20:21:38.150Z,2.63
2018-09-02T20:27:00.333Z,2.50
2018-09-02T20:32:22.464Z,2.43
2018-09-02T20:37:44.606Z,2.20
2018-09-02T20:43:06.478Z,2.67
2018-09-02T20:48:28.599Z,2.30
2018-09-02T20:53:50.498Z,2.20
2018-09-02T20:59:12.637Z,2.20
2018-09-02T21:04:34.413Z,2.23
2018-09-02T21:19:37.509Z,2.40
2018-09-02T21:24:59.289Z,2.60
2018-09-02T21:30:21.754Z,2.37
2018-09-02T21:35:44.158Z,2.10
2018-09-02T21:41:06.170Z,2.10
2018-09-02T21:46:28.178Z,2.17
2018-09-02T21:51:49.981Z,1.83
2018-09-02T21:57:12.058Z,2.10
2018-09-02T22:02:34.731Z,1.83
2018-09-02T22:07:56.491Z,2.23
2018-09-02T22:13:18.573Z,2.10
2018-09-02T22:18:40.362Z,2.37
2018-09-02T22:24:02.493Z,2.10
2018-09-02T22:29:24.509Z,2.17
2018-09-02T22:34:46.715Z,2.07
2018-09-02T22:40:08.558Z,2.30
2018-09-02T22:45:30.440Z,1.90
2018-09-02T22:50:52.193Z,2.20
2018-09-02T22:56:14.491Z,2.33
2018-09-02T23:01:36.822Z,2.37
2018-09-02T23:06:59.094Z,2.20
2018-09-02T23:12:21.487Z,2.27
2018-09-02T23:17:43.376Z,1.63
2018-09-02T23:23:05.757Z,1.90
2018-09-02T23:28:27.873Z,2.40
2018-09-02T23:33:51.326Z,1.80
2018-09-02T23:39:14.074Z,2.27
2018-09-02T23:44:35.803Z,2.13
2018-09-02T23:49:57.873Z,2.10
2018-09-02T23:55:19.659Z,2.07
